57分钟前
罗盘
风向 的 风向 130° Ottawa / Carp Airport 10/28
风: 7 千吨, 3 beaufort
0 500 1.500 3.000 5.000 8.000 10.000
FEW 9.600 ft
BKN 11.000 ft
METAR CYOW 020000Z 13007KT 15SM FEW096 BKN110 M02/M09 A3003 RMK AC2AC5 SLP179

METAR定义 | 嵌入

24小时趋势

航班类别VFRLIFR
温度0 °C-4 °C
风速19 千吨0 千吨
能见度24 公里0 米

更多历史数据

下载我们的安卓应用程序

从你的主屏幕上轻松地访问你的航空天气。
只需一次付费,您就可以获得无广告的体验。

您会帮助我们保持Metar-Taf.com正常运行吗?
您的贡献有助于网站的进一步开发并支付费用。

没有更多广告

您是捐款5美元还是更多?然后,我们将永远不会再向您展示广告,这是我们永恒的感谢!
捐赠前先登录

METAR Ottawa / Carp Airport

Ottawa / Carp Airport是Ottawa,加拿大中的中型机场。 机场有{a,plural,=1{一条跑道} other{#跑道}}: 4/22 和 10/28

Ottawa / Carp Airport最近未发布观察结果。相反,我们向您显示28 km的报告渥太华麦克唐纳-卡蒂埃国际机场。 该报告是针对2021年12月1日 19:00, 当地时间进行的。

机场观察

风来自南东 (130°)方向,速度为7 千吨。

可见度为24 公里。

有几云在9.600 ft的高度 和 碎云在11.000 ft的高度。 破损或更高的上限为11.000 ft。

温度为-2 °C,阵风为-9 °C。 露点为-9 °C,相对湿度为59%。 海平面上的气压为1017 压力 (QNH)。

评论

  • 海平面压力为1017,9 压力 (SLP179)
  • AC2AC5

白天

今天,太阳从07:24升起,在16:22降落。 这适用于Ottawa / Carp Airport,世界夏令时可能有所不同。 当地时间与世界标准时间之间的时差为-5 小时。 当前,没有夏令时有效。

公司介绍

在这个机场,你可以找到飞行学校。 本场上唯一已知的公司是International Pilot Academy。

体会

到Vliegles.nl去找飞行课程,跳伞和其他飞行体验。 浏览页面,了解Ottawa / Carp Airport附近所有可用的活动。 你也可以使用搜索功能来寻找你所在地附近的特定飞行课程、跳伞或其他飞行体验。

您是否要在网站上Ottawa / Carp Airport飞行的天气? 阅读更多   自由!